Time;durP1;ratioP1;P1;durP2;ratioP2;P2;SDS_P1;SDS_P2;PMS_P1;PMS_P2;Temp;Humidity;BMP_temperature;BMP_pressure;BME280_temperature;BME280_humidity;BME280_pressure;Samples;Min_cycle;Max_cycle;Signal;HPM_P1;HPM_P2
2022/06/22 00:01:48;;;;;;;7.05;4.40;;;12.20;99.90;;;;;;5085919;28;20116;-73
2022/06/22 00:04:22;;;;;;;5.07;4.30;;;12.20;99.90;;;;;;5073403;28;20059;-73
2022/06/22 00:06:57;;;;;;;7.03;4.28;;;12.20;99.90;;;;;;5091161;28;20068;-74
2022/06/22 00:09:26;;;;;;;6.03;4.60;;;12.00;99.90;;;;;;5090576;28;20051;-73
2022/06/22 00:11:52;;;;;;;7.18;4.60;;;11.90;99.90;;;;;;5091113;28;20127;-73
2022/06/22 00:14:24;;;;;;;8.25;5.38;;;11.90;99.90;;;;;;5091071;28;20055;-74
2022/06/22 00:16:52;;;;;;;6.80;4.85;;;12.10;99.90;;;;;;5090828;28;20480;-73
2022/06/22 00:19:34;;;;;;;6.53;4.38;;;12.10;99.90;;;;;;5091279;28;20052;-73
2022/06/22 00:22:00;;;;;;;7.20;5.55;;;12.20;99.90;;;;;;5091308;28;20055;-73
2022/06/22 00:24:26;;;;;;;7.00;5.22;;;12.00;99.90;;;;;;5091127;28;20063;-73
2022/06/22 00:26:57;;;;;;;6.90;5.07;;;12.00;99.90;;;;;;5090893;28;20048;-73
2022/06/22 00:29:26;;;;;;;6.18;5.20;;;12.00;99.90;;;;;;5072957;28;20055;-73
2022/06/22 00:31:51;;;;;;;7.18;5.60;;;11.90;99.90;;;;;;5090654;28;20097;-73
2022/06/22 00:34:24;;;;;;;8.43;5.45;;;11.90;99.90;;;;;;5090873;28;20044;-73
2022/06/22 00:37:00;;;;;;;6.88;5.30;;;11.80;99.90;;;;;;5090751;28;20119;-73
2022/06/22 00:39:28;;;;;;;6.65;5.45;;;11.80;99.90;;;;;;5072593;28;20052;-74
2022/06/22 00:41:56;;;;;;;7.85;5.78;;;11.90;99.90;;;;;;5090639;28;20135;-73
2022/06/22 00:44:27;;;;;;;6.75;5.07;;;11.90;99.90;;;;;;5090723;28;20396;-73
2022/06/22 00:47:23;;;;;;;8.07;5.78;;;11.90;99.90;;;;;;5090658;28;20040;-73
2022/06/22 00:49:48;;;;;;;6.75;6.05;;;12.00;99.90;;;;;;5073112;28;20083;-73
2022/06/22 00:52:27;;;;;;;7.32;6.10;;;12.00;99.90;;;;;;5090676;28;20412;-73
2022/06/22 00:54:52;;;;;;;8.57;5.70;;;12.10;99.90;;;;;;5092093;28;20040;-73
2022/06/22 00:57:33;;;;;;;7.43;5.68;;;12.10;99.90;;;;;;5076765;28;20476;-73
2022/06/22 01:00:05;;;;;;;7.80;5.57;;;12.20;99.90;;;;;;5094399;28;20452;-73
2022/06/22 01:02:46;;;;;;;9.15;5.88;;;12.20;99.90;;;;;;5094748;28;20044;-73
2022/06/22 01:06:00;;;;;;;8.30;6.60;;;12.20;99.90;;;;;;5094703;28;20036;-73
2022/06/22 01:08:59;;;;;;;6.30;4.45;;;12.20;99.90;;;;;;5066833;28;20052;-73
2022/06/22 01:14:57;;;;;;;6.13;4.63;;;11.90;99.90;;;;;;5092564;28;20058;-74
2022/06/22 01:17:37;;;;;;;8.85;5.10;;;11.80;99.90;;;;;;5006790;28;20049;-73
2022/06/22 01:20:28;;;;;;;11.40;5.70;;;11.60;99.90;;;;;;5091336;28;20103;-73
2022/06/22 01:23:06;;;;;;;6.95;5.20;;;11.40;99.90;;;;;;5076530;28;20036;-74
2022/06/22 01:25:50;;;;;;;24.90;5.63;;;11.10;99.90;;;;;;5094340;28;20090;-73
2022/06/22 01:28:16;;;;;;;5.65;4.30;;;10.80;99.90;;;;;;5094246;28;20044;-73
2022/06/22 01:30:48;;;;;;;6.55;4.80;;;10.60;99.90;;;;;;5056108;28;20044;-73
2022/06/22 01:33:33;;;;;;;8.32;5.97;;;10.60;99.90;;;;;;5082002;28;20047;-72
2022/06/22 01:36:02;;;;;;;10.45;4.90;;;10.50;99.90;;;;;;5093930;28;20044;-73
2022/06/22 01:38:30;;;;;;;6.20;4.80;;;10.40;99.90;;;;;;5093468;28;20051;-73
2022/06/22 01:41:34;;;;;;;6.38;4.85;;;10.40;99.90;;;;;;5094000;28;20135;-74
2022/06/22 01:44:13;;;;;;;37.25;6.00;;;10.30;99.90;;;;;;5093598;28;20114;-74
2022/06/22 01:47:17;;;;;;;16.38;5.55;;;10.20;99.90;;;;;;5093669;28;20110;-74
2022/06/22 01:49:54;;;;;;;42.20;6.80;;;10.10;99.90;;;;;;5093766;28;20036;-74
2022/06/22 01:52:38;;;;;;;61.55;7.32;;;9.90;99.90;;;;;;5093838;28;20055;-74
2022/06/22 01:55:27;;;;;;;87.20;9.77;;;9.80;99.90;;;;;;5075714;28;20104;-74
2022/06/22 01:58:16;;;;;;;14.90;4.95;;;9.80;99.90;;;;;;5075658;28;20067;-74
2022/06/22 02:00:55;;;;;;;5.90;4.30;;;9.90;99.90;;;;;;5093457;28;20078;-74
2022/06/22 02:04:07;;;;;;;7.00;4.88;;;10.10;99.90;;;;;;5075512;28;20047;-74
2022/06/22 02:09:37;;;;;;;6.85;5.25;;;10.30;99.90;;;;;;5091200;28;20059;-74
2022/06/22 02:12:18;;;;;;;5.57;4.45;;;10.40;99.90;;;;;;5093145;28;20488;-73
2022/06/22 02:14:49;;;;;;;7.68;5.20;;;10.50;99.90;;;;;;5093330;28;20497;-74
2022/06/22 02:17:22;;;;;;;6.95;4.95;;;10.60;99.90;;;;;;5093448;28;20052;-74
2022/06/22 02:20:33;;;;;;;6.93;4.80;;;10.60;99.90;;;;;;5093310;28;20458;-74
2022/06/22 02:23:08;;;;;;;6.00;4.28;;;10.60;99.90;;;;;;5084585;28;20060;-74
2022/06/22 02:25:45;;;;;;;6.90;4.37;;;10.50;99.90;;;;;;5093008;28;20040;-74
2022/06/22 02:28:11;;;;;;;7.65;5.38;;;10.30;99.90;;;;;;5092976;28;20301;-74
2022/06/22 02:30:37;;;;;;;7.75;5.43;;;10.10;99.90;;;;;;5074998;28;20384;-74
2022/06/22 02:33:05;;;;;;;6.60;5.22;;;10.10;99.90;;;;;;5074654;28;20048;-74
2022/06/22 02:35:31;;;;;;;6.57;4.38;;;10.10;99.90;;;;;;5074813;28;20048;-74
2022/06/22 02:38:02;;;;;;;12.90;6.05;;;10.20;99.90;;;;;;5092133;28;20308;-74
2022/06/22 02:40:31;;;;;;;15.43;6.82;;;10.20;99.90;;;;;;5092965;28;20060;-74
2022/06/22 02:45:43;;;;;;;22.63;8.20;;;10.10;99.90;;;;;;5074793;28;20592;-74
2022/06/22 02:48:41;;;;;;;13.88;6.65;;;10.10;99.90;;;;;;5092586;28;20106;-75
2022/06/22 02:51:16;;;;;;;49.70;9.30;;;10.00;99.90;;;;;;5027835;28;20107;-74
2022/06/22 02:53:43;;;;;;;15.13;8.15;;;9.90;99.90;;;;;;5089739;28;20119;-74
2022/06/22 02:56:16;;;;;;;9.95;6.78;;;9.80;99.90;;;;;;5092384;28;20043;-74
2022/06/22 02:58:43;;;;;;;10.70;5.18;;;9.80;99.90;;;;;;5092015;28;20127;-73
2022/06/22 03:01:16;;;;;;;8.25;6.15;;;9.80;99.90;;;;;;5070781;28;20051;-74
2022/06/22 03:03:58;;;;;;;9.82;7.03;;;10.00;99.90;;;;;;5074286;28;20086;-73
2022/06/22 03:06:31;;;;;;;12.35;8.73;;;10.00;99.90;;;;;;5092210;28;20063;-74
2022/06/22 03:09:04;;;;;;;12.02;7.88;;;9.90;99.90;;;;;;5091640;28;20048;-74
2022/06/22 03:11:32;;;;;;;11.05;7.97;;;9.90;99.90;;;;;;5074248;28;20063;-74
2022/06/22 03:14:14;;;;;;;10.07;8.15;;;9.80;99.90;;;;;;5074015;28;20526;-73
2022/06/22 03:16:44;;;;;;;10.32;7.95;;;9.80;99.90;;;;;;5092157;28;20082;-74
2022/06/22 03:19:17;;;;;;;9.95;7.40;;;9.80;99.90;;;;;;5091903;28;20032;-74
2022/06/22 03:21:43;;;;;;;11.27;7.70;;;9.80;99.90;;;;;;5092044;28;20111;-74
2022/06/22 03:24:13;;;;;;;8.93;6.53;;;9.80;99.90;;;;;;5091861;28;20055;-74
2022/06/22 03:26:44;;;;;;;10.05;7.15;;;9.70;99.90;;;;;;5091909;28;20052;-74
2022/06/22 03:29:41;;;;;;;13.13;7.28;;;9.70;99.90;;;;;;5091630;28;20048;-73
2022/06/22 03:32:17;;;;;;;17.02;8.40;;;9.70;99.90;;;;;;5090753;28;20762;-73
2022/06/22 03:34:49;;;;;;;13.60;7.78;;;9.70;99.90;;;;;;5090514;28;20043;-74
2022/06/22 03:37:53;;;;;;;10.48;6.93;;;9.70;99.90;;;;;;5090821;28;20039;-73
2022/06/22 03:40:27;;;;;;;12.18;7.25;;;9.70;99.90;;;;;;5041708;28;20056;-74
2022/06/22 03:42:58;;;;;;;9.55;6.30;;;9.70;99.90;;;;;;5091344;28;20120;-73
2022/06/22 03:45:30;;;;;;;12.73;5.60;;;9.80;99.90;;;;;;5073556;28;20126;-74
2022/06/22 03:48:11;;;;;;;27.20;5.38;;;9.80;99.90;;;;;;5091658;28;20383;-74
2022/06/22 03:50:51;;;;;;;56.45;7.13;;;9.90;99.90;;;;;;5091724;28;20782;-73
2022/06/22 03:53:47;;;;;;;50.70;6.78;;;9.90;99.90;;;;;;5091505;28;20058;-73
2022/06/22 03:56:18;;;;;;;13.05;4.63;;;9.90;99.90;;;;;;5071428;28;20052;-73
2022/06/22 03:58:47;;;;;;;22.25;5.10;;;9.90;99.90;;;;;;5077689;28;20119;-74
2022/06/22 04:01:13;;;;;;;48.67;6.18;;;9.90;99.90;;;;;;5073231;28;20048;-74
2022/06/22 04:03:40;;;;;;;14.93;4.45;;;9.90;99.90;;;;;;5073422;28;20040;-74
2022/06/22 04:06:07;;;;;;;29.92;5.25;;;9.90;99.90;;;;;;5073439;28;20063;-73
2022/06/22 04:08:37;;;;;;;23.98;5.07;;;9.80;99.90;;;;;;5090620;28;20504;-73
2022/06/22 04:11:15;;;;;;;11.35;3.97;;;9.80;99.90;;;;;;5091487;28;20058;-74
2022/06/22 04:13:52;;;;;;;15.93;4.15;;;9.90;99.90;;;;;;5091181;28;20137;-74
2022/06/22 04:16:25;;;;;;;15.38;4.55;;;9.80;99.90;;;;;;5073592;28;20058;-74
2022/06/22 04:18:56;;;;;;;9.93;3.78;;;9.80;99.90;;;;;;5091027;28;20102;-74
2022/06/22 04:21:38;;;;;;;9.07;3.25;;;9.80;99.90;;;;;;5091265;28;20063;-74
2022/06/22 04:24:23;;;;;;;9.68;3.75;;;9.80;99.90;;;;;;5091011;28;20074;-74
2022/06/22 04:26:49;;;;;;;8.07;4.32;;;9.90;99.90;;;;;;5091036;28;20489;-74
2022/06/22 04:29:35;;;;;;;22.88;5.07;;;9.90;99.90;;;;;;5091374;28;20132;-74
2022/06/22 04:32:18;;;;;;;15.57;4.00;;;10.00;99.90;;;;;;5095292;28;20048;-74
2022/06/22 04:35:01;;;;;;;12.05;4.47;;;10.00;99.90;;;;;;5095074;28;20043;-74
2022/06/22 04:37:43;;;;;;;16.35;5.03;;;10.10;99.90;;;;;;5094440;28;20040;-74
2022/06/22 04:40:21;;;;;;;9.60;4.25;;;10.20;99.90;;;;;;5095215;28;20056;-74
2022/06/22 04:42:51;;;;;;;9.60;4.38;;;10.30;99.90;;;;;;5057021;28;20059;-74
2022/06/22 04:45:25;;;;;;;5.72;3.75;;;10.40;99.90;;;;;;5093022;28;20046;-74
2022/06/22 04:47:50;;;;;;;7.38;4.00;;;10.50;99.90;;;;;;5094878;28;20052;-74
2022/06/22 04:50:16;;;;;;;8.27;4.38;;;10.50;99.90;;;;;;5094581;28;20047;-74
2022/06/22 04:52:48;;;;;;;6.95;4.35;;;10.60;99.90;;;;;;5094996;28;20053;-74
2022/06/22 04:55:20;;;;;;;7.15;4.97;;;10.70;99.90;;;;;;5076564;28;20043;-73
2022/06/22 04:57:49;;;;;;;7.50;5.55;;;10.80;99.90;;;;;;5094669;28;20047;-74
2022/06/22 05:00:25;;;;;;;7.88;5.60;;;10.90;99.90;;;;;;5094651;28;20036;-74
2022/06/22 05:03:07;;;;;;;8.40;6.18;;;11.00;99.90;;;;;;5094237;28;20494;-74
2022/06/22 05:05:34;;;;;;;8.20;6.28;;;11.10;99.90;;;;;;5094645;28;20048;-74
2022/06/22 05:08:27;;;;;;;8.77;6.15;;;11.20;99.90;;;;;;5075241;28;20055;-74
2022/06/22 05:11:02;;;;;;;11.05;7.03;;;11.40;99.90;;;;;;5094521;28;20098;-74
2022/06/22 05:13:32;;;;;;;10.63;7.40;;;11.50;99.90;;;;;;5094182;28;20574;-74
2022/06/22 05:15:59;;;;;;;10.57;7.22;;;11.60;99.90;;;;;;5094523;28;20759;-74
2022/06/22 05:18:29;;;;;;;10.25;7.45;;;11.80;99.90;;;;;;5094484;28;21494;-74
2022/06/22 05:21:00;;;;;;;9.48;6.72;;;11.90;99.90;;;;;;5076378;28;20472;-74
2022/06/22 05:23:28;;;;;;;10.55;7.22;;;12.00;99.90;;;;;;5094498;28;20058;-74
2022/06/22 05:25:56;;;;;;;11.68;7.25;;;12.10;99.90;;;;;;5093818;28;20373;-74
2022/06/22 05:28:36;;;;;;;10.65;7.25;;;12.30;99.90;;;;;;5075996;28;20051;-74
2022/06/22 05:31:07;;;;;;;10.98;7.45;;;12.50;99.90;;;;;;5076216;28;20131;-73
2022/06/22 05:33:35;;;;;;;11.90;7.43;;;12.60;99.90;;;;;;5094078;28;20080;-74
2022/06/22 05:36:07;;;;;;;13.05;8.85;;;12.80;99.90;;;;;;5093906;28;20097;-73
2022/06/22 05:38:39;;;;;;;12.10;8.02;;;13.00;99.90;;;;;;5093874;28;20036;-73
2022/06/22 05:41:07;;;;;;;11.93;8.10;;;13.20;99.90;;;;;;5092534;28;20540;-74
2022/06/22 05:43:36;;;;;;;12.10;7.78;;;13.30;99.90;;;;;;5093823;28;20044;-73
2022/06/22 05:46:02;;;;;;;9.55;7.43;;;13.40;99.90;;;;;;5093656;28;20048;-74
2022/06/22 05:48:33;;;;;;;10.90;7.57;;;13.40;99.90;;;;;;5093840;28;20051;-74
2022/06/22 05:51:26;;;;;;;9.32;7.15;;;13.50;99.90;;;;;;5093724;28;20063;-74
2022/06/22 05:53:56;;;;;;;10.40;7.50;;;13.60;99.90;;;;;;5062074;28;20067;-74
2022/06/22 05:56:26;;;;;;;10.27;7.93;;;13.70;99.90;;;;;;5093749;28;20052;-74
2022/06/22 05:59:21;;;;;;;12.43;7.22;;;13.80;99.90;;;;;;5075652;28;20507;-74
2022/06/22 06:02:29;;;;;;;10.93;7.28;;;13.90;99.90;;;;;;5073612;28;20135;-73
2022/06/22 06:05:17;;;;;;;10.48;8.10;;;14.10;99.90;;;;;;5071119;28;20158;-74
2022/06/22 06:07:49;;;;;;;10.48;6.70;;;14.10;99.90;;;;;;5092556;28;20105;-73
2022/06/22 06:10:30;;;;;;;10.00;7.40;;;14.30;99.90;;;;;;5093465;28;20048;-68
2022/06/22 06:13:21;;;;;;;10.30;7.88;;;14.40;99.90;;;;;;5093287;28;20052;-68
2022/06/22 06:15:52;;;;;;;11.50;7.60;;;14.50;99.90;;;;;;5069111;28;20136;-68
2022/06/22 06:18:23;;;;;;;10.88;7.20;;;14.60;99.90;;;;;;5060825;28;20119;-68
2022/06/22 06:20:54;;;;;;;10.35;7.65;;;14.70;99.90;;;;;;5093183;28;20127;-68
2022/06/22 06:23:22;;;;;;;9.20;7.68;;;14.90;99.90;;;;;;5093038;28;20048;-68
2022/06/22 06:28:42;;;;;;;12.43;7.43;;;15.10;99.90;;;;;;5092602;28;20044;-68
2022/06/22 06:31:20;;;;;;;10.52;7.35;;;15.20;99.90;;;;;;5092913;28;20076;-68
2022/06/22 06:33:45;;;;;;;9.02;6.82;;;15.30;99.90;;;;;;5092835;28;20047;-68
2022/06/22 06:36:26;;;;;;;8.25;6.47;;;15.40;99.90;;;;;;5092897;28;20117;-68
2022/06/22 06:39:13;;;;;;;8.85;6.50;;;15.50;99.90;;;;;;5092171;28;20036;-68
2022/06/22 06:41:42;;;;;;;10.45;6.78;;;15.50;99.90;;;;;;5092854;28;20044;-68
2022/06/22 06:44:20;;;;;;;9.25;6.40;;;15.60;99.90;;;;;;5092741;28;20090;-68
2022/06/22 06:46:53;;;;;;;11.13;6.78;;;15.70;99.90;;;;;;5074811;28;20048;-68
2022/06/22 06:49:28;;;;;;;9.98;6.93;;;15.80;99.90;;;;;;5092513;28;20200;-68
2022/06/22 06:51:56;;;;;;;10.10;7.30;;;15.90;99.90;;;;;;5092244;28;20404;-68
2022/06/22 06:54:27;;;;;;;9.57;6.75;;;16.00;99.90;;;;;;5074324;28;20080;-68
2022/06/22 06:56:59;;;;;;;8.60;6.00;;;16.10;99.90;;;;;;5092529;28;20048;-68
2022/06/22 06:59:28;;;;;;;9.77;5.93;;;16.30;99.90;;;;;;5092590;28;20105;-68
2022/06/22 07:01:54;;;;;;;8.52;5.90;;;16.40;99.90;;;;;;5092005;28;20522;-68
2022/06/22 07:04:33;;;;;;;8.63;5.57;;;16.50;99.90;;;;;;5075083;28;20052;-69
2022/06/22 07:07:36;;;;;;;6.80;4.45;;;16.60;99.90;;;;;;5082060;28;20056;-68
2022/06/22 07:10:08;;;;;;;6.53;4.30;;;16.70;99.90;;;;;;5080442;28;20059;-67
2022/06/22 07:12:39;;;;;;;5.63;4.00;;;16.70;99.90;;;;;;5090480;28;20044;-68
2022/06/22 07:15:13;;;;;;;4.90;3.85;;;16.80;99.90;;;;;;5091251;28;20040;-69
2022/06/22 07:17:39;;;;;;;5.30;3.30;;;16.80;99.90;;;;;;5089074;28;20044;-68
2022/06/22 07:20:19;;;;;;;7.18;3.80;;;16.90;99.90;;;;;;5091419;28;20135;-68
2022/06/22 07:23:11;;;;;;;6.47;4.18;;;17.00;99.90;;;;;;5084365;28;20048;-69
2022/06/22 07:25:43;;;;;;;7.15;3.95;;;17.10;99.90;;;;;;5083686;28;20051;-69
2022/06/22 07:28:29;;;;;;;7.70;4.30;;;17.20;99.90;;;;;;5075061;28;20087;-69
2022/06/22 07:31:10;;;;;;;5.28;3.65;;;17.30;99.90;;;;;;5084370;28;20527;-70
2022/06/22 07:33:41;;;;;;;4.65;3.38;;;17.40;99.90;;;;;;5079253;28;20048;-69
2022/06/22 07:36:20;;;;;;;4.72;3.83;;;17.50;99.90;;;;;;5079949;28;20052;-69
2022/06/22 07:39:29;;;;;;;7.05;4.57;;;17.60;99.90;;;;;;5062103;28;20054;-69
2022/06/22 07:41:55;;;;;;;5.15;3.47;;;17.70;99.90;;;;;;5082794;28;20044;-69
2022/06/22 07:44:28;;;;;;;6.15;3.15;;;17.70;99.90;;;;;;5079936;28;20049;-70
2022/06/22 07:47:08;;;;;;;6.05;3.10;;;17.80;99.90;;;;;;5086325;28;20127;-69
2022/06/22 07:49:47;;;;;;;5.03;2.78;;;17.90;99.90;;;;;;5077442;28;20052;-69
2022/06/22 07:52:16;;;;;;;4.45;3.00;;;17.90;99.90;;;;;;5066273;28;20040;-68
2022/06/22 07:54:50;;;;;;;4.90;2.63;;;18.00;99.90;;;;;;5080187;28;20055;-68
2022/06/22 07:57:34;;;;;;;4.72;3.00;;;17.90;99.90;;;;;;5088896;28;20083;-68
2022/06/22 08:00:06;;;;;;;5.57;3.28;;;18.00;99.90;;;;;;5082886;28;20052;-69
2022/06/22 08:03:18;;;;;;;5.03;2.97;;;18.00;99.90;;;;;;5085188;28;20794;-68
2022/06/22 08:05:48;;;;;;;3.95;3.08;;;18.10;99.90;;;;;;5083736;28;20105;-69
2022/06/22 08:08:28;;;;;;;4.47;3.10;;;17.70;99.90;;;;;;5078522;28;20063;-69
2022/06/22 08:10:57;;;;;;;5.75;3.10;;;18.30;99.90;;;;;;5070798;28;20424;-68
2022/06/22 08:13:25;;;;;;;8.85;3.00;;;18.30;99.90;;;;;;5070978;28;20048;-68
2022/06/22 08:15:58;;;;;;;6.15;3.05;;;18.40;99.90;;;;;;5070697;28;20163;-68
2022/06/22 08:18:24;;;;;;;4.22;3.25;;;18.40;99.90;;;;;;5070612;28;20151;-69
2022/06/22 08:20:52;;;;;;;5.63;3.05;;;18.50;99.90;;;;;;5070620;28;20127;-69
2022/06/22 08:23:22;;;;;;;4.70;2.47;;;18.60;99.90;;;;;;5082557;28;20083;-68
2022/06/22 08:25:49;;;;;;;4.53;2.45;;;18.60;99.90;;;;;;5090520;28;20566;-68
2022/06/22 08:28:18;;;;;;;4.30;2.47;;;18.70;99.90;;;;;;5090737;28;20047;-69
2022/06/22 08:30:44;;;;;;;3.88;2.50;;;18.70;99.90;;;;;;5091075;28;20097;-69
2022/06/22 08:33:15;;;;;;;4.03;1.98;;;18.80;99.90;;;;;;5089815;28;20044;-69
2022/06/22 08:35:55;;;;;;;3.78;2.00;;;18.80;99.90;;;;;;5090454;28;20409;-69
2022/06/22 08:38:32;;;;;;;5.00;2.20;;;19.00;99.90;;;;;;5090378;28;20048;-69
2022/06/22 08:41:09;;;;;;;3.97;1.95;;;19.10;99.90;;;;;;5090477;28;20036;-69
2022/06/22 08:43:54;;;;;;;3.08;2.05;;;19.20;99.90;;;;;;5090912;28;20040;-69
2022/06/22 08:46:47;;;;;;;3.67;1.70;;;19.30;99.90;;;;;;5090599;28;20105;-69
2022/06/22 08:49:50;;;;;;;3.83;1.80;;;19.20;99.90;;;;;;5090803;28;20040;-69
2022/06/22 08:52:24;;;;;;;4.25;2.50;;;19.20;99.90;;;;;;5090465;28;20475;-69
2022/06/22 08:55:02;;;;;;;4.00;2.50;;;19.20;99.90;;;;;;5090113;28;20058;-69
2022/06/22 08:57:40;;;;;;;4.80;2.55;;;19.40;99.90;;;;;;5090633;28;20052;-68
2022/06/22 09:00:09;;;;;;;4.75;2.72;;;19.50;99.90;;;;;;5090379;28;20496;-69
2022/06/22 09:03:08;;;;;;;3.83;2.47;;;19.60;99.90;;;;;;5090244;28;20079;-69
2022/06/22 09:05:46;;;;;;;3.45;2.20;;;19.60;99.90;;;;;;5090641;28;20044;-69
2022/06/22 09:08:48;;;;;;;3.88;2.40;;;19.60;99.90;;;;;;5089673;28;20075;-69
2022/06/22 09:11:22;;;;;;;6.40;2.03;;;19.70;99.90;;;;;;5090494;28;20048;-69
2022/06/22 09:14:16;;;;;;;5.40;2.30;;;19.80;99.90;;;;;;5072260;28;20052;-69
2022/06/22 09:16:53;;;;;;;3.90;1.98;;;19.80;99.90;;;;;;5093100;28;20499;-70
2022/06/22 09:19:51;;;;;;;3.95;2.10;;;20.00;99.90;;;;;;5094397;28;20040;-69
2022/06/22 09:22:29;;;;;;;3.92;1.70;;;20.10;99.90;;;;;;5094084;28;20044;-69
2022/06/22 09:25:02;;;;;;;2.67;1.48;;;20.20;99.90;;;;;;5075898;28;20380;-70
2022/06/22 09:27:46;;;;;;;3.38;1.67;;;20.30;99.90;;;;;;5093967;28;20055;-69
2022/06/22 09:30:35;;;;;;;2.30;1.52;;;20.30;99.90;;;;;;5094058;28;20047;-69
2022/06/22 09:33:13;;;;;;;3.75;1.90;;;20.40;99.90;;;;;;5093598;28;20054;-68
2022/06/22 09:35:59;;;;;;;3.67;1.60;;;20.30;99.90;;;;;;5094029;28;20049;-69
2022/06/22 09:38:52;;;;;;;4.80;1.63;;;20.40;99.90;;;;;;5092373;28;20039;-69
2022/06/22 09:41:36;;;;;;;3.00;1.52;;;20.50;99.90;;;;;;5091802;28;20181;-69
2022/06/22 09:44:22;;;;;;;2.88;1.50;;;20.50;99.90;;;;;;5085405;28;20229;-68
2022/06/22 09:47:18;;;;;;;4.38;1.58;;;20.40;99.90;;;;;;5093434;28;20086;-69
2022/06/22 09:49:58;;;;;;;2.40;1.60;;;20.40;99.90;;;;;;5093505;28;20455;-70
2022/06/22 09:53:02;;;;;;;5.68;1.90;;;20.40;99.90;;;;;;5093327;28;20055;-69
2022/06/22 09:58:26;;;;;;;5.38;2.10;;;20.50;99.90;;;;;;5093332;28;20117;-70
2022/06/22 10:00:55;;;;;;;3.30;1.85;;;20.40;99.90;;;;;;5075365;28;20465;-69
2022/06/22 10:03:27;;;;;;;2.30;1.50;;;20.40;99.90;;;;;;5093286;28;20048;-69
2022/06/22 10:06:11;;;;;;;3.58;1.65;;;20.50;99.90;;;;;;5093111;28;20492;-68
2022/06/22 10:08:57;;;;;;;3.33;1.60;;;20.50;99.90;;;;;;5074771;28;20052;-68
2022/06/22 10:11:33;;;;;;;4.78;1.98;;;20.50;99.90;;;;;;5072982;28;20105;-68
2022/06/22 10:14:17;;;;;;;2.72;1.60;;;20.60;99.90;;;;;;5072728;28;20059;-69
2022/06/22 10:16:56;;;;;;;2.53;1.77;;;20.70;99.90;;;;;;5072760;28;20114;-68
2022/06/22 10:19:37;;;;;;;4.50;2.17;;;20.70;99.90;;;;;;5072877;28;20140;-69
2022/06/22 10:22:15;;;;;;;4.55;1.90;;;20.60;99.90;;;;;;5073612;28;20045;-68
2022/06/22 10:25:01;;;;;;;3.30;1.70;;;20.70;99.90;;;;;;5092918;28;20051;-68
2022/06/22 10:27:51;;;;;;;2.60;1.70;;;20.70;99.90;;;;;;5074202;28;20442;-69
2022/06/22 10:30:44;;;;;;;3.38;1.73;;;20.80;99.90;;;;;;5092393;28;20048;-68
2022/06/22 10:33:34;;;;;;;2.42;1.23;;;20.90;99.90;;;;;;5092712;28;20039;-70
2022/06/22 10:36:23;;;;;;;2.20;1.40;;;20.90;99.90;;;;;;5074465;28;20044;-69
2022/06/22 10:39:27;;;;;;;4.97;1.83;;;20.90;99.90;;;;;;5077802;28;20040;-68
2022/06/22 10:45:08;;;;;;;2.80;1.70;;;20.90;99.90;;;;;;5070181;28;20058;-70
2022/06/22 10:48:05;;;;;;;3.20;1.60;;;20.80;99.90;;;;;;5089649;28;20052;-70
2022/06/22 10:50:49;;;;;;;;;;;20.70;99.90;;;;;;5095593;28;20051;-68
2022/06/22 10:53:33;;;;;;;2.15;1.40;;;20.90;99.90;;;;;;5097604;28;19925;-69
2022/06/22 10:56:18;;;;;;;3.10;1.63;;;21.00;99.90;;;;;;5077804;28;20051;-69
2022/06/22 10:58:56;;;;;;;3.10;1.48;;;21.00;99.90;;;;;;5105190;28;20036;-69
2022/06/22 11:01:28;;;;;;;4.60;1.38;;;21.10;99.90;;;;;;5110045;28;20048;-69
2022/06/22 11:04:19;;;;;;;2.50;1.50;;;21.00;99.90;;;;;;5112726;28;20094;-70
2022/06/22 11:07:26;;;;;;;2.10;1.30;;;21.00;99.90;;;;;;5112334;28;20047;-69
2022/06/22 11:10:09;;;;;;;2.40;1.15;;;21.00;99.90;;;;;;5105688;28;20597;-69
2022/06/22 11:12:56;;;;;;;2.53;1.20;;;21.10;99.90;;;;;;5091921;28;20058;-70
2022/06/22 11:16:03;;;;;;;2.83;1.60;;;21.10;99.90;;;;;;5092243;28;20086;-69
2022/06/22 11:18:51;;;;;;;2.28;1.20;;;21.20;99.90;;;;;;5077591;28;20058;-69
2022/06/22 11:21:50;;;;;;;2.80;1.50;;;21.20;99.90;;;;;;5092040;28;20134;-69
2022/06/22 11:24:54;;;;;;;2.22;1.05;;;21.30;99.90;;;;;;5064752;28;20455;-69
2022/06/22 11:30:51;;;;;;;2.08;1.10;;;21.30;99.90;;;;;;5070999;28;20052;-68
2022/06/22 11:33:23;;;;;;;1.75;0.90;;;21.40;99.90;;;;;;5077160;28;20444;-68
2022/06/22 11:36:17;;;;;;;2.50;0.80;;;21.40;99.90;;;;;;5091507;28;20048;-68
2022/06/22 11:39:09;;;;;;;3.20;1.40;;;21.40;99.90;;;;;;5090321;28;20058;-69
2022/06/22 11:41:41;;;;;;;2.42;0.90;;;21.40;99.90;;;;;;5091039;28;20416;-69
2022/06/22 11:44:15;;;;;;;3.50;1.45;;;21.50;99.90;;;;;;5090576;28;20116;-69
2022/06/22 11:46:56;;;;;;;2.65;1.10;;;21.60;99.90;;;;;;5091077;28;20052;-69
2022/06/22 11:49:40;;;;;;;2.42;1.20;;;21.70;99.90;;;;;;5091376;28;20040;-69
2022/06/22 11:52:08;;;;;;;2.35;1.13;;;21.80;99.90;;;;;;5091003;28;20044;-69
2022/06/22 11:54:52;;;;;;;2.28;0.90;;;21.80;99.90;;;;;;5091150;28;20492;-69
2022/06/22 11:57:30;;;;;;;3.88;1.10;;;21.90;99.90;;;;;;5091295;28;20052;-69
2022/06/22 12:00:20;;;;;;;2.13;1.00;;;21.90;99.90;;;;;;5091023;28;20091;-69
2022/06/22 12:03:02;;;;;;;2.10;0.93;;;21.90;99.90;;;;;;5072996;28;20146;-69
2022/06/22 12:05:41;;;;;;;2.65;1.15;;;22.00;99.90;;;;;;5091352;28;20287;-69
2022/06/22 12:08:25;;;;;;;2.97;1.35;;;22.00;99.90;;;;;;5090311;28;20581;-69
2022/06/22 12:11:10;;;;;;;2.42;1.17;;;21.90;99.90;;;;;;5063649;28;20403;-69
2022/06/22 12:17:05;;;;;;;2.13;1.10;;;22.10;99.90;;;;;;5090924;28;20058;-69
2022/06/22 12:19:59;;;;;;;2.78;1.10;;;22.00;99.90;;;;;;5091006;28;20052;-68
2022/06/22 12:22:33;;;;;;;1.85;1.10;;;22.00;99.90;;;;;;5090327;28;20101;-71
2022/06/22 12:25:37;;;;;;;2.42;1.00;;;22.10;99.90;;;;;;5072639;28;20048;-68
2022/06/22 12:28:36;;;;;;;2.50;1.17;;;22.00;99.90;;;;;;5074435;28;20048;-68
2022/06/22 12:31:05;;;;;;;2.67;1.10;;;22.00;99.90;;;;;;5089450;28;20075;-68
2022/06/22 12:33:42;;;;;;;2.28;1.20;;;22.10;99.90;;;;;;5090595;28;20048;-68
2022/06/22 12:36:23;;;;;;;1.88;1.00;;;22.10;99.90;;;;;;5090434;28;20056;-68
2022/06/22 12:38:53;;;;;;;3.05;1.33;;;22.20;99.90;;;;;;5071554;28;20054;-69
2022/06/22 12:41:40;;;;;;;3.65;1.38;;;22.30;99.90;;;;;;5065107;28;20079;-69
2022/06/22 12:44:38;;;;;;;2.90;1.20;;;22.30;99.90;;;;;;5070466;28;20097;-68
2022/06/22 12:47:46;;;;;;;2.40;1.20;;;22.30;99.90;;;;;;5070353;28;20468;-68
2022/06/22 12:50:36;;;;;;;1.60;1.00;;;22.30;99.90;;;;;;5056969;28;20110;-69
2022/06/22 12:53:06;;;;;;;3.15;1.20;;;22.40;99.90;;;;;;5074009;28;20182;-68
2022/06/22 12:55:41;;;;;;;2.15;1.00;;;22.40;99.90;;;;;;5089514;28;20388;-69
2022/06/22 12:58:18;;;;;;;2.33;1.00;;;22.40;99.90;;;;;;5094278;28;20110;-69
2022/06/22 13:00:44;;;;;;;2.75;1.45;;;22.40;99.90;;;;;;5093936;28;20085;-68
2022/06/22 13:03:20;;;;;;;2.30;1.15;;;22.40;99.90;;;;;;5094639;28;20044;-68
2022/06/22 13:05:47;;;;;;;3.55;1.30;;;22.40;99.90;;;;;;5094688;28;20048;-68
2022/06/22 13:08:20;;;;;;;1.92;1.17;;;22.50;99.90;;;;;;5093119;28;20063;-68
2022/06/22 13:10:51;;;;;;;3.97;1.55;;;22.50;99.90;;;;;;5088699;28;20048;-67
2022/06/22 13:13:20;;;;;;;2.92;1.50;;;22.50;99.90;;;;;;5086187;28;20097;-69
2022/06/22 13:16:05;;;;;;;2.20;1.13;;;22.50;99.90;;;;;;5093863;28;20044;-69
2022/06/22 13:18:34;;;;;;;2.72;1.10;;;22.50;99.90;;;;;;5092869;28;20048;-69
2022/06/22 13:21:13;;;;;;;2.65;1.08;;;22.50;99.90;;;;;;5094092;28;20048;-68
2022/06/22 13:24:04;;;;;;;3.03;1.20;;;22.60;99.90;;;;;;5078745;28;20149;-69
2022/06/22 13:26:39;;;;;;;2.80;1.23;;;22.60;99.90;;;;;;5054575;28;20052;-69
2022/06/22 13:29:05;;;;;;;;;;;22.70;99.90;;;;;;5078951;28;20040;-69
2022/06/22 13:31:37;;;;;;;2.73;1.20;;;22.70;99.90;;;;;;5093921;28;19924;-69
2022/06/22 13:34:17;;;;;;;2.22;1.20;;;22.70;99.90;;;;;;5081044;28;20051;-69
2022/06/22 13:37:06;;;;;;;3.05;1.23;;;22.70;99.90;;;;;;5073140;28;20405;-69
2022/06/22 13:39:51;;;;;;;3.10;1.60;;;22.80;99.90;;;;;;5038692;28;20590;-70
2022/06/22 13:42:27;;;;;;;3.70;1.70;;;22.90;99.90;;;;;;5093967;28;20408;-69
2022/06/22 13:45:49;;;;;;;3.00;1.50;;;23.00;99.90;;;;;;5076072;28;20123;-69
2022/06/22 13:48:16;;;;;;;3.58;1.55;;;23.00;99.90;;;;;;4987129;28;20125;-71
2022/06/22 13:50:56;;;;;;;3.08;1.40;;;23.00;99.90;;;;;;4989480;28;20097;-69
2022/06/22 13:53:53;;;;;;;3.10;1.30;;;23.00;99.90;;;;;;5061587;28;20068;-69
2022/06/22 13:56:34;;;;;;;1.83;1.27;;;23.00;99.90;;;;;;5093165;28;20052;-69
2022/06/22 13:59:10;;;;;;;2.65;1.40;;;23.10;99.90;;;;;;5093393;28;20090;-69
2022/06/22 14:01:44;;;;;;;5.20;1.73;;;23.10;99.90;;;;;;5092853;28;20047;-67
2022/06/22 14:04:31;;;;;;;2.88;1.30;;;23.10;99.90;;;;;;5092915;28;20109;-68
2022/06/22 14:07:23;;;;;;;2.75;1.60;;;23.10;99.90;;;;;;5071796;28;20041;-68
2022/06/22 14:10:00;;;;;;;3.10;1.33;;;23.10;99.90;;;;;;5061562;28;20432;-68